sensor_id;sensor_type;location;lat;lon;timestamp;temperature;humidity
26707;DHT22;14319;49.422;10.934;2022-10-17T00:00:13;13.50;98.50
26707;DHT22;14319;49.422;10.934;2022-10-17T00:02:14;13.50;98.20
26707;DHT22;14319;49.422;10.934;2022-10-17T00:04:15;13.50;98.50
26707;DHT22;14319;49.422;10.934;2022-10-17T00:06:16;13.50;98.80
26707;DHT22;14319;49.422;10.934;2022-10-17T00:08:17;13.40;98.90
26707;DHT22;14319;49.422;10.934;2022-10-17T00:10:17;13.50;98.90
26707;DHT22;14319;49.422;10.934;2022-10-17T00:12:18;13.40;98.80
26707;DHT22;14319;49.422;10.934;2022-10-17T00:14:19;13.40;98.60
26707;DHT22;14319;49.422;10.934;2022-10-17T00:16:26;13.40;98.60
26707;DHT22;14319;49.422;10.934;2022-10-17T00:18:27;13.30;98.60
26707;DHT22;14319;49.422;10.934;2022-10-17T00:20:28;13.40;98.80
26707;DHT22;14319;49.422;10.934;2022-10-17T00:22:30;13.40;99.00
26707;DHT22;14319;49.422;10.934;2022-10-17T00:24:31;13.30;99.10
26707;DHT22;14319;49.422;10.934;2022-10-17T00:26:32;13.30;99.30
26707;DHT22;14319;49.422;10.934;2022-10-17T00:28:32;13.40;99.50
26707;DHT22;14319;49.422;10.934;2022-10-17T00:30:33;13.40;99.40
26707;DHT22;14319;49.422;10.934;2022-10-17T00:32:34;13.40;99.50
26707;DHT22;14319;49.422;10.934;2022-10-17T00:34:35;13.40;99.50
26707;DHT22;14319;49.422;10.934;2022-10-17T00:36:35;13.40;99.50
26707;DHT22;14319;49.422;10.934;2022-10-17T00:38:37;13.40;99.60
26707;DHT22;14319;49.422;10.934;2022-10-17T00:40:37;13.40;99.90
26707;DHT22;14319;49.422;10.934;2022-10-17T00:42:38;13.40;99.90
26707;DHT22;14319;49.422;10.934;2022-10-17T00:46:39;13.50;99.70
26707;DHT22;14319;49.422;10.934;2022-10-17T00:48:42;13.50;99.40
26707;DHT22;14319;49.422;10.934;2022-10-17T00:50:44;13.50;99.20
26707;DHT22;14319;49.422;10.934;2022-10-17T00:52:46;13.50;99.30
26707;DHT22;14319;49.422;10.934;2022-10-17T00:54:50;13.50;99.20
26707;DHT22;14319;49.422;10.934;2022-10-17T00:56:52;13.40;99.50
26707;DHT22;14319;49.422;10.934;2022-10-17T00:58:54;13.40;99.90
26707;DHT22;14319;49.422;10.934;2022-10-17T01:00:54;13.40;99.90
26707;DHT22;14319;49.422;10.934;2022-10-17T01:02:55;13.40;99.90
26707;DHT22;14319;49.422;10.934;2022-10-17T01:04:56;13.40;99.90
26707;DHT22;14319;49.422;10.934;2022-10-17T01:06:59;13.40;99.90
26707;DHT22;14319;49.422;10.934;2022-10-17T01:08:59;13.40;99.80
26707;DHT22;14319;49.422;10.934;2022-10-17T01:13:11;13.30;99.90
26707;DHT22;14319;49.422;10.934;2022-10-17T01:15:17;13.30;99.90
26707;DHT22;14319;49.422;10.934;2022-10-17T01:28:24;13.20;98.70
26707;DHT22;14319;49.422;10.934;2022-10-17T01:31:11;13.10;99.40
26707;DHT22;14319;49.422;10.934;2022-10-17T01:32:55;13.10;99.50
26707;DHT22;14319;49.422;10.934;2022-10-17T01:35:06;13.10;99.30
26707;DHT22;14319;49.422;10.934;2022-10-17T01:37:15;13.00;99.10
26707;DHT22;14319;49.422;10.934;2022-10-17T01:41:39;13.00;99.00
26707;DHT22;14319;49.422;10.934;2022-10-17T01:43:52;13.00;99.20
26707;DHT22;14319;49.422;10.934;2022-10-17T01:45:57;13.20;99.20
26707;DHT22;14319;49.422;10.934;2022-10-17T01:48:02;13.20;99.00
26707;DHT22;14319;49.422;10.934;2022-10-17T01:50:04;13.20;98.80
26707;DHT22;14319;49.422;10.934;2022-10-17T01:52:13;13.20;98.70
26707;DHT22;14319;49.422;10.934;2022-10-17T01:54:24;13.20;98.70
26707;DHT22;14319;49.422;10.934;2022-10-17T01:56:27;13.10;99.30
26707;DHT22;14319;49.422;10.934;2022-10-17T01:58:31;13.10;99.40
26707;DHT22;14319;49.422;10.934;2022-10-17T02:00:32;13.10;99.30
26707;DHT22;14319;49.422;10.934;2022-10-17T02:02:34;13.10;99.00
26707;DHT22;14319;49.422;10.934;2022-10-17T02:04:35;13.10;99.00
26707;DHT22;14319;49.422;10.934;2022-10-17T02:06:38;13.10;99.20
26707;DHT22;14319;49.422;10.934;2022-10-17T02:08:45;13.00;99.00
26707;DHT22;14319;49.422;10.934;2022-10-17T02:10:57;13.00;98.60
26707;DHT22;14319;49.422;10.934;2022-10-17T02:13:09;13.00;99.10
26707;DHT22;14319;49.422;10.934;2022-10-17T02:15:27;12.90;99.00
26707;DHT22;14319;49.422;10.934;2022-10-17T02:25:53;12.80;99.20
26707;DHT22;14319;49.422;10.934;2022-10-17T02:32:13;12.80;99.50
26707;DHT22;14319;49.422;10.934;2022-10-17T02:36:25;12.70;99.60
26707;DHT22;14319;49.422;10.934;2022-10-17T02:38:28;12.80;99.50
26707;DHT22;14319;49.422;10.934;2022-10-17T02:40:29;12.80;99.90
26707;DHT22;14319;49.422;10.934;2022-10-17T02:42:31;12.40;95.20
26707;DHT22;14319;49.422;10.934;2022-10-17T02:44:32;12.10;97.50
26707;DHT22;14319;49.422;10.934;2022-10-17T02:46:33;12.00;99.10
26707;DHT22;14319;49.422;10.934;2022-10-17T02:49:17;12.00;99.40
26707;DHT22;14319;49.422;10.934;2022-10-17T02:53:16;12.10;99.10
26707;DHT22;14319;49.422;10.934;2022-10-17T02:55:22;12.20;97.70
26707;DHT22;14319;49.422;10.934;2022-10-17T02:57:26;12.20;96.70
26707;DHT22;14319;49.422;10.934;2022-10-17T02:59:29;12.10;96.00
26707;DHT22;14319;49.422;10.934;2022-10-17T03:01:30;12.10;97.60
26707;DHT22;14319;49.422;10.934;2022-10-17T03:03:31;12.00;97.30
26707;DHT22;14319;49.422;10.934;2022-10-17T03:05:35;12.10;97.90
26707;DHT22;14319;49.422;10.934;2022-10-17T03:07:36;12.20;97.40
26707;DHT22;14319;49.422;10.934;2022-10-17T03:09:37;12.10;96.20
26707;DHT22;14319;49.422;10.934;2022-10-17T03:11:38;12.10;96.50
26707;DHT22;14319;49.422;10.934;2022-10-17T03:13:39;11.90;95.40
26707;DHT22;14319;49.422;10.934;2022-10-17T03:15:40;11.80;96.30
26707;DHT22;14319;49.422;10.934;2022-10-17T03:17:41;11.80;97.30
26707;DHT22;14319;49.422;10.934;2022-10-17T03:19:42;11.80;97.20
26707;DHT22;14319;49.422;10.934;2022-10-17T03:21:43;11.70;97.40
26707;DHT22;14319;49.422;10.934;2022-10-17T03:23:45;11.70;98.10
26707;DHT22;14319;49.422;10.934;2022-10-17T03:25:48;11.70;98.30
26707;DHT22;14319;49.422;10.934;2022-10-17T03:27:49;11.70;98.90
26707;DHT22;14319;49.422;10.934;2022-10-17T03:29:50;11.70;99.80
26707;DHT22;14319;49.422;10.934;2022-10-17T03:31:51;11.70;99.90
26707;DHT22;14319;49.422;10.934;2022-10-17T03:33:52;11.80;99.90
26707;DHT22;14319;49.422;10.934;2022-10-17T03:35:53;11.80;99.90
26707;DHT22;14319;49.422;10.934;2022-10-17T03:37:54;11.80;99.80
26707;DHT22;14319;49.422;10.934;2022-10-17T03:39:56;11.80;99.90
26707;DHT22;14319;49.422;10.934;2022-10-17T03:41:56;11.90;99.90
26707;DHT22;14319;49.422;10.934;2022-10-17T03:43:57;12.00;99.90
26707;DHT22;14319;49.422;10.934;2022-10-17T03:45:59;12.00;99.70
26707;DHT22;14319;49.422;10.934;2022-10-17T03:48:00;12.10;99.50
26707;DHT22;14319;49.422;10.934;2022-10-17T03:50:00;12.10;99.80
26707;DHT22;14319;49.422;10.934;2022-10-17T03:52:04;12.10;99.90
26707;DHT22;14319;49.422;10.934;2022-10-17T03:54:04;12.10;99.50
26707;DHT22;14319;49.422;10.934;2022-10-17T03:56:16;12.10;99.90
26707;DHT22;14319;49.422;10.934;2022-10-17T03:58:18;12.10;99.80
26707;DHT22;14319;49.422;10.934;2022-10-17T04:00:19;12.10;99.90
26707;DHT22;14319;49.422;10.934;2022-10-17T04:02:27;12.00;99.50
26707;DHT22;14319;49.422;10.934;2022-10-17T04:04:28;12.00;99.20
26707;DHT22;14319;49.422;10.934;2022-10-17T04:06:28;12.00;99.50
26707;DHT22;14319;49.422;10.934;2022-10-17T04:08:30;12.00;99.30
26707;DHT22;14319;49.422;10.934;2022-10-17T04:10:39;11.90;95.50
26707;DHT22;14319;49.422;10.934;2022-10-17T04:12:40;11.50;96.80
26707;DHT22;14319;49.422;10.934;2022-10-17T04:14:40;11.40;97.40
26707;DHT22;14319;49.422;10.934;2022-10-17T04:16:42;11.40;97.50
26707;DHT22;14319;49.422;10.934;2022-10-17T04:18:54;11.40;98.00
26707;DHT22;14319;49.422;10.934;2022-10-17T04:20:56;11.50;98.00
26707;DHT22;14319;49.422;10.934;2022-10-17T04:22:57;11.50;98.70
26707;DHT22;14319;49.422;10.934;2022-10-17T04:24:58;11.30;96.70
26707;DHT22;14319;49.422;10.934;2022-10-17T04:27:19;11.10;98.00
26707;DHT22;14319;49.422;10.934;2022-10-17T04:29:21;11.00;99.30
26707;DHT22;14319;49.422;10.934;2022-10-17T04:31:24;11.00;98.40
26707;DHT22;14319;49.422;10.934;2022-10-17T04:33:40;11.10;98.50
26707;DHT22;14319;49.422;10.934;2022-10-17T04:35:41;11.10;98.50
26707;DHT22;14319;49.422;10.934;2022-10-17T04:37:42;11.20;98.90
26707;DHT22;14319;49.422;10.934;2022-10-17T04:39:49;11.30;98.70
26707;DHT22;14319;49.422;10.934;2022-10-17T04:41:50;11.30;97.30
26707;DHT22;14319;49.422;10.934;2022-10-17T04:43:51;11.30;96.90
26707;DHT22;14319;49.422;10.934;2022-10-17T04:45:52;11.20;96.70
26707;DHT22;14319;49.422;10.934;2022-10-17T04:47:53;11.20;96.70
26707;DHT22;14319;49.422;10.934;2022-10-17T04:49:54;11.20;97.30
26707;DHT22;14319;49.422;10.934;2022-10-17T04:51:56;11.20;98.00
26707;DHT22;14319;49.422;10.934;2022-10-17T04:54:00;11.20;97.40
26707;DHT22;14319;49.422;10.934;2022-10-17T04:56:06;11.10;98.00
26707;DHT22;14319;49.422;10.934;2022-10-17T04:58:06;11.20;98.00
26707;DHT22;14319;49.422;10.934;2022-10-17T05:00:07;11.20;97.70
26707;DHT22;14319;49.422;10.934;2022-10-17T05:02:31;11.20;98.30
26707;DHT22;14319;49.422;10.934;2022-10-17T05:04:33;11.30;98.00
26707;DHT22;14319;49.422;10.934;2022-10-17T05:06:34;11.20;97.10
26707;DHT22;14319;49.422;10.934;2022-10-17T05:08:50;11.20;97.30
26707;DHT22;14319;49.422;10.934;2022-10-17T05:10:52;11.10;97.80
26707;DHT22;14319;49.422;10.934;2022-10-17T05:12:53;11.10;97.90
26707;DHT22;14319;49.422;10.934;2022-10-17T05:14:57;11.10;97.60
26707;DHT22;14319;49.422;10.934;2022-10-17T05:16:59;11.00;97.70
26707;DHT22;14319;49.422;10.934;2022-10-17T05:19:01;11.00;97.60
26707;DHT22;14319;49.422;10.934;2022-10-17T05:21:07;11.00;97.40
26707;DHT22;14319;49.422;10.934;2022-10-17T05:23:08;11.00;98.10
26707;DHT22;14319;49.422;10.934;2022-10-17T05:25:13;11.00;98.60
26707;DHT22;14319;49.422;10.934;2022-10-17T05:27:14;11.00;98.10
26707;DHT22;14319;49.422;10.934;2022-10-17T05:29:15;10.90;97.90
26707;DHT22;14319;49.422;10.934;2022-10-17T05:31:20;11.00;97.80
26707;DHT22;14319;49.422;10.934;2022-10-17T05:33:21;11.00;97.80
26707;DHT22;14319;49.422;10.934;2022-10-17T05:35:23;11.10;97.70
26707;DHT22;14319;49.422;10.934;2022-10-17T05:37:23;11.20;96.60
26707;DHT22;14319;49.422;10.934;2022-10-17T05:39:26;11.20;97.30
26707;DHT22;14319;49.422;10.934;2022-10-17T05:41:27;11.30;97.10
26707;DHT22;14319;49.422;10.934;2022-10-17T05:43:28;11.30;96.90
26707;DHT22;14319;49.422;10.934;2022-10-17T05:45:28;11.30;96.70
26707;DHT22;14319;49.422;10.934;2022-10-17T05:47:30;11.30;96.00
26707;DHT22;14319;49.422;10.934;2022-10-17T05:49:31;11.30;96.60
26707;DHT22;14319;49.422;10.934;2022-10-17T05:51:32;11.20;96.20
26707;DHT22;14319;49.422;10.934;2022-10-17T05:53:38;11.30;96.90
26707;DHT22;14319;49.422;10.934;2022-10-17T05:55:42;11.20;96.50
26707;DHT22;14319;49.422;10.934;2022-10-17T05:57:43;11.30;96.70
26707;DHT22;14319;49.422;10.934;2022-10-17T05:59:48;11.30;96.70
26707;DHT22;14319;49.422;10.934;2022-10-17T06:01:53;11.30;96.70
26707;DHT22;14319;49.422;10.934;2022-10-17T06:03:54;11.30;97.00
26707;DHT22;14319;49.422;10.934;2022-10-17T06:05:54;11.30;97.00
26707;DHT22;14319;49.422;10.934;2022-10-17T06:07:56;11.30;96.50
26707;DHT22;14319;49.422;10.934;2022-10-17T06:09:57;11.30;96.90
26707;DHT22;14319;49.422;10.934;2022-10-17T06:11:58;11.30;96.90
26707;DHT22;14319;49.422;10.934;2022-10-17T06:13:59;11.30;97.30
26707;DHT22;14319;49.422;10.934;2022-10-17T06:16:02;11.40;97.40
26707;DHT22;14319;49.422;10.934;2022-10-17T06:18:03;11.40;96.80
26707;DHT22;14319;49.422;10.934;2022-10-17T06:20:04;11.40;97.20
26707;DHT22;14319;49.422;10.934;2022-10-17T06:22:06;11.40;97.10
26707;DHT22;14319;49.422;10.934;2022-10-17T06:24:06;11.50;97.50
26707;DHT22;14319;49.422;10.934;2022-10-17T06:26:10;11.50;97.00
26707;DHT22;14319;49.422;10.934;2022-10-17T06:28:11;11.10;95.10
26707;DHT22;14319;49.422;10.934;2022-10-17T06:30:12;11.10;96.30
26707;DHT22;14319;49.422;10.934;2022-10-17T06:32:13;11.10;96.10
26707;DHT22;14319;49.422;10.934;2022-10-17T06:34:14;11.00;94.80
26707;DHT22;14319;49.422;10.934;2022-10-17T06:36:15;10.80;95.80
26707;DHT22;14319;49.422;10.934;2022-10-17T06:38:17;10.80;97.50
26707;DHT22;14319;49.422;10.934;2022-10-17T06:40:18;11.00;98.00
26707;DHT22;14319;49.422;10.934;2022-10-17T06:42:19;11.00;96.50
26707;DHT22;14319;49.422;10.934;2022-10-17T06:44:27;11.10;96.70
26707;DHT22;14319;49.422;10.934;2022-10-17T06:46:49;11.10;96.90
26707;DHT22;14319;49.422;10.934;2022-10-17T06:48:51;11.10;96.90
26707;DHT22;14319;49.422;10.934;2022-10-17T06:51:03;11.20;97.00
26707;DHT22;14319;49.422;10.934;2022-10-17T06:53:06;11.10;96.20
26707;DHT22;14319;49.422;10.934;2022-10-17T06:55:35;11.00;97.10
26707;DHT22;14319;49.422;10.934;2022-10-17T06:57:55;11.10;98.00
26707;DHT22;14319;49.422;10.934;2022-10-17T07:00:16;11.00;97.70
26707;DHT22;14319;49.422;10.934;2022-10-17T07:02:23;11.00;98.00
26707;DHT22;14319;49.422;10.934;2022-10-17T07:04:26;11.10;97.90
26707;DHT22;14319;49.422;10.934;2022-10-17T07:06:27;11.10;98.50
26707;DHT22;14319;49.422;10.934;2022-10-17T07:08:29;11.20;99.20
26707;DHT22;14319;49.422;10.934;2022-10-17T07:10:30;11.10;99.00
26707;DHT22;14319;49.422;10.934;2022-10-17T07:12:31;11.10;99.90
26707;DHT22;14319;49.422;10.934;2022-10-17T07:14:34;11.20;99.90
26707;DHT22;14319;49.422;10.934;2022-10-17T07:16:35;11.30;99.90
26707;DHT22;14319;49.422;10.934;2022-10-17T07:18:49;11.30;99.90
26707;DHT22;14319;49.422;10.934;2022-10-17T07:20:52;11.30;99.90
26707;DHT22;14319;49.422;10.934;2022-10-17T07:22:53;11.30;99.90
26707;DHT22;14319;49.422;10.934;2022-10-17T07:24:53;11.40;99.90
26707;DHT22;14319;49.422;10.934;2022-10-17T07:27:01;11.50;99.90
26707;DHT22;14319;49.422;10.934;2022-10-17T07:29:01;11.60;99.90
26707;DHT22;14319;49.422;10.934;2022-10-17T07:31:11;11.60;99.90
26707;DHT22;14319;49.422;10.934;2022-10-17T07:33:12;11.50;99.90
26707;DHT22;14319;49.422;10.934;2022-10-17T07:35:12;11.50;99.90
26707;DHT22;14319;49.422;10.934;2022-10-17T07:37:14;11.50;99.90
26707;DHT22;14319;49.422;10.934;2022-10-17T07:39:21;11.50;99.90
26707;DHT22;14319;49.422;10.934;2022-10-17T07:41:22;11.60;99.90
26707;DHT22;14319;49.422;10.934;2022-10-17T07:43:24;11.70;99.90
26707;DHT22;14319;49.422;10.934;2022-10-17T07:45:26;11.80;99.90
26707;DHT22;14319;49.422;10.934;2022-10-17T07:47:27;11.90;99.90
26707;DHT22;14319;49.422;10.934;2022-10-17T07:49:30;12.00;99.90
26707;DHT22;14319;49.422;10.934;2022-10-17T07:51:31;12.10;99.90
26707;DHT22;14319;49.422;10.934;2022-10-17T07:53:33;12.20;99.90
26707;DHT22;14319;49.422;10.934;2022-10-17T07:55:35;12.30;99.90
26707;DHT22;14319;49.422;10.934;2022-10-17T07:57:36;12.50;99.90
26707;DHT22;14319;49.422;10.934;2022-10-17T07:59:37;12.60;99.90
26707;DHT22;14319;49.422;10.934;2022-10-17T08:01:37;12.70;99.90
26707;DHT22;14319;49.422;10.934;2022-10-17T08:03:38;12.80;99.90
26707;DHT22;14319;49.422;10.934;2022-10-17T08:05:38;12.80;99.90
26707;DHT22;14319;49.422;10.934;2022-10-17T08:07:39;12.80;99.90
26707;DHT22;14319;49.422;10.934;2022-10-17T08:09:41;12.90;99.90
26707;DHT22;14319;49.422;10.934;2022-10-17T08:11:42;13.00;99.90
26707;DHT22;14319;49.422;10.934;2022-10-17T08:13:45;13.10;99.90
26707;DHT22;14319;49.422;10.934;2022-10-17T08:15:45;13.40;99.90
26707;DHT22;14319;49.422;10.934;2022-10-17T08:17:47;13.50;99.90
26707;DHT22;14319;49.422;10.934;2022-10-17T08:19:47;13.70;99.90
26707;DHT22;14319;49.422;10.934;2022-10-17T08:21:48;13.80;99.90
26707;DHT22;14319;49.422;10.934;2022-10-17T08:23:49;14.00;99.90
26707;DHT22;14319;49.422;10.934;2022-10-17T08:25:50;14.10;99.90
26707;DHT22;14319;49.422;10.934;2022-10-17T08:27:51;14.20;99.90
26707;DHT22;14319;49.422;10.934;2022-10-17T08:29:51;14.30;99.90
26707;DHT22;14319;49.422;10.934;2022-10-17T08:31:53;14.50;99.90
26707;DHT22;14319;49.422;10.934;2022-10-17T08:33:53;14.60;99.90
26707;DHT22;14319;49.422;10.934;2022-10-17T08:35:54;14.70;99.90
26707;DHT22;14319;49.422;10.934;2022-10-17T08:37:57;14.70;99.90
26707;DHT22;14319;49.422;10.934;2022-10-17T08:39:57;14.70;99.90
26707;DHT22;14319;49.422;10.934;2022-10-17T08:42:03;14.80;99.90
26707;DHT22;14319;49.422;10.934;2022-10-17T08:46:08;15.00;99.90
26707;DHT22;14319;49.422;10.934;2022-10-17T08:48:10;15.00;99.90
26707;DHT22;14319;49.422;10.934;2022-10-17T08:50:14;15.10;99.90
26707;DHT22;14319;49.422;10.934;2022-10-17T08:52:20;15.10;99.90
26707;DHT22;14319;49.422;10.934;2022-10-17T08:54:45;15.20;99.90
26707;DHT22;14319;49.422;10.934;2022-10-17T08:56:48;15.30;99.90
26707;DHT22;14319;49.422;10.934;2022-10-17T08:58:49;15.30;99.90
26707;DHT22;14319;49.422;10.934;2022-10-17T09:00:52;15.40;99.90
26707;DHT22;14319;49.422;10.934;2022-10-17T09:03:08;15.50;99.90
26707;DHT22;14319;49.422;10.934;2022-10-17T09:16:10;15.90;99.90
26707;DHT22;14319;49.422;10.934;2022-10-17T09:18:27;15.90;99.90
26707;DHT22;14319;49.422;10.934;2022-10-17T09:20:33;16.00;99.40
26707;DHT22;14319;49.422;10.934;2022-10-17T09:22:38;16.00;99.60
26707;DHT22;14319;49.422;10.934;2022-10-17T09:24:48;16.00;99.00
26707;DHT22;14319;49.422;10.934;2022-10-17T09:26:50;16.00;99.50
26707;DHT22;14319;49.422;10.934;2022-10-17T09:28:52;16.00;99.90
26707;DHT22;14319;49.422;10.934;2022-10-17T09:31:00;16.10;99.10
26707;DHT22;14319;49.422;10.934;2022-10-17T09:33:19;16.10;99.20
26707;DHT22;14319;49.422;10.934;2022-10-17T09:35:20;16.20;99.10
26707;DHT22;14319;49.422;10.934;2022-10-17T09:37:30;16.30;99.30
26707;DHT22;14319;49.422;10.934;2022-10-17T09:39:31;16.30;99.90
26707;DHT22;14319;49.422;10.934;2022-10-17T09:41:33;16.30;99.50
26707;DHT22;14319;49.422;10.934;2022-10-17T09:43:35;16.30;99.00
26707;DHT22;14319;49.422;10.934;2022-10-17T09:45:38;16.40;99.40
26707;DHT22;14319;49.422;10.934;2022-10-17T09:47:48;16.40;99.60
26707;DHT22;14319;49.422;10.934;2022-10-17T09:49:50;16.50;99.90
26707;DHT22;14319;49.422;10.934;2022-10-17T09:51:51;16.60;99.90
26707;DHT22;14319;49.422;10.934;2022-10-17T09:53:56;16.60;99.90
26707;DHT22;14319;49.422;10.934;2022-10-17T09:56:01;16.70;99.60
26707;DHT22;14319;49.422;10.934;2022-10-17T09:58:03;16.80;99.40
26707;DHT22;14319;49.422;10.934;2022-10-17T10:00:04;16.80;99.60
26707;DHT22;14319;49.422;10.934;2022-10-17T10:04:17;16.90;98.40
26707;DHT22;14319;49.422;10.934;2022-10-17T10:06:18;16.90;98.40
26707;DHT22;14319;49.422;10.934;2022-10-17T10:08:19;17.00;98.40
26707;DHT22;14319;49.422;10.934;2022-10-17T10:10:25;16.90;98.20
26707;DHT22;14319;49.422;10.934;2022-10-17T10:12:30;17.10;97.10
26707;DHT22;14319;49.422;10.934;2022-10-17T10:16:33;17.20;97.50
26707;DHT22;14319;49.422;10.934;2022-10-17T10:18:41;17.30;97.40
26707;DHT22;14319;49.422;10.934;2022-10-17T10:20:41;17.30;96.80
26707;DHT22;14319;49.422;10.934;2022-10-17T10:23:02;17.40;96.50
26707;DHT22;14319;49.422;10.934;2022-10-17T10:27:11;17.50;95.50
26707;DHT22;14319;49.422;10.934;2022-10-17T10:31:24;17.60;95.20
26707;DHT22;14319;49.422;10.934;2022-10-17T10:33:26;17.60;95.10
26707;DHT22;14319;49.422;10.934;2022-10-17T10:35:32;17.60;95.00
26707;DHT22;14319;49.422;10.934;2022-10-17T10:37:37;17.70;94.70
26707;DHT22;14319;49.422;10.934;2022-10-17T10:39:49;17.70;94.10
26707;DHT22;14319;49.422;10.934;2022-10-17T10:41:50;17.80;94.50
26707;DHT22;14319;49.422;10.934;2022-10-17T10:43:51;17.90;94.60
26707;DHT22;14319;49.422;10.934;2022-10-17T10:45:52;18.00;93.70
26707;DHT22;14319;49.422;10.934;2022-10-17T10:50:08;18.20;91.70
26707;DHT22;14319;49.422;10.934;2022-10-17T10:52:22;18.30;91.20
26707;DHT22;14319;49.422;10.934;2022-10-17T10:54:25;18.50;90.40
26707;DHT22;14319;49.422;10.934;2022-10-17T10:56:37;18.40;89.40
26707;DHT22;14319;49.422;10.934;2022-10-17T11:00:43;18.40;91.00
26707;DHT22;14319;49.422;10.934;2022-10-17T11:02:48;18.40;91.60
26707;DHT22;14319;49.422;10.934;2022-10-17T11:06:57;18.50;90.70
26707;DHT22;14319;49.422;10.934;2022-10-17T11:13:05;18.60;90.70
26707;DHT22;14319;49.422;10.934;2022-10-17T11:19:33;18.80;91.30
26707;DHT22;14319;49.422;10.934;2022-10-17T11:21:40;18.80;90.50
26707;DHT22;14319;49.422;10.934;2022-10-17T11:23:46;18.90;89.40
26707;DHT22;14319;49.422;10.934;2022-10-17T11:25:48;19.00;88.20
26707;DHT22;14319;49.422;10.934;2022-10-17T11:27:49;19.20;87.30
26707;DHT22;14319;49.422;10.934;2022-10-17T11:29:50;19.30;87.50
26707;DHT22;14319;49.422;10.934;2022-10-17T11:31:51;19.30;87.30
26707;DHT22;14319;49.422;10.934;2022-10-17T11:36:03;19.40;87.70
26707;DHT22;14319;49.422;10.934;2022-10-17T11:38:07;19.40;87.00
26707;DHT22;14319;49.422;10.934;2022-10-17T11:40:29;19.40;87.60
26707;DHT22;14319;49.422;10.934;2022-10-17T11:42:32;19.40;87.10
26707;DHT22;14319;49.422;10.934;2022-10-17T11:44:35;19.40;86.50
26707;DHT22;14319;49.422;10.934;2022-10-17T11:46:36;19.40;87.30
26707;DHT22;14319;49.422;10.934;2022-10-17T11:49:23;19.40;86.50
26707;DHT22;14319;49.422;10.934;2022-10-17T11:51:07;19.40;85.50
26707;DHT22;14319;49.422;10.934;2022-10-17T11:53:12;19.60;86.80
26707;DHT22;14319;49.422;10.934;2022-10-17T11:55:19;19.60;86.10
26707;DHT22;14319;49.422;10.934;2022-10-17T11:57:27;19.60;85.20
26707;DHT22;14319;49.422;10.934;2022-10-17T12:01:34;19.70;84.90
26707;DHT22;14319;49.422;10.934;2022-10-17T12:05:59;19.60;85.80
26707;DHT22;14319;49.422;10.934;2022-10-17T12:08:15;19.60;85.50
26707;DHT22;14319;49.422;10.934;2022-10-17T12:10:23;19.60;85.80
26707;DHT22;14319;49.422;10.934;2022-10-17T12:12:29;19.60;85.50
26707;DHT22;14319;49.422;10.934;2022-10-17T12:16:36;19.80;85.00
26707;DHT22;14319;49.422;10.934;2022-10-17T12:18:38;20.00;84.00
26707;DHT22;14319;49.422;10.934;2022-10-17T12:20:38;20.00;84.50
26707;DHT22;14319;49.422;10.934;2022-10-17T12:22:45;20.00;83.90
26707;DHT22;14319;49.422;10.934;2022-10-17T12:24:53;19.90;84.80
26707;DHT22;14319;49.422;10.934;2022-10-17T12:26:54;19.90;84.40
26707;DHT22;14319;49.422;10.934;2022-10-17T12:28:55;19.80;84.20
26707;DHT22;14319;49.422;10.934;2022-10-17T12:34:57;19.80;85.70
26707;DHT22;14319;49.422;10.934;2022-10-17T12:36:58;19.90;84.70
26707;DHT22;14319;49.422;10.934;2022-10-17T12:41:02;20.10;84.40
26707;DHT22;14319;49.422;10.934;2022-10-17T12:47:51;20.10;84.10
26707;DHT22;14319;49.422;10.934;2022-10-17T12:49:52;20.10;83.90
26707;DHT22;14319;49.422;10.934;2022-10-17T12:54:13;20.20;83.00
26707;DHT22;14319;49.422;10.934;2022-10-17T12:56:29;20.30;83.60
26707;DHT22;14319;49.422;10.934;2022-10-17T12:58:30;20.20;82.60
26707;DHT22;14319;49.422;10.934;2022-10-17T13:02:35;20.20;83.30
26707;DHT22;14319;49.422;10.934;2022-10-17T13:04:36;20.20;83.10
26707;DHT22;14319;49.422;10.934;2022-10-17T13:06:43;20.30;81.40
26707;DHT22;14319;49.422;10.934;2022-10-17T13:08:45;20.40;81.30
26707;DHT22;14319;49.422;10.934;2022-10-17T13:10:48;20.40;80.90
26707;DHT22;14319;49.422;10.934;2022-10-17T13:12:51;20.30;81.40
26707;DHT22;14319;49.422;10.934;2022-10-17T13:14:53;20.20;81.50
26707;DHT22;14319;49.422;10.934;2022-10-17T13:18:54;20.30;81.90
26707;DHT22;14319;49.422;10.934;2022-10-17T13:21:03;20.40;81.40
26707;DHT22;14319;49.422;10.934;2022-10-17T13:23:04;20.40;81.30
26707;DHT22;14319;49.422;10.934;2022-10-17T13:25:13;20.30;81.00
26707;DHT22;14319;49.422;10.934;2022-10-17T13:27:30;20.40;81.10
26707;DHT22;14319;49.422;10.934;2022-10-17T13:29:31;20.30;81.90
26707;DHT22;14319;49.422;10.934;2022-10-17T13:31:34;20.40;81.60
26707;DHT22;14319;49.422;10.934;2022-10-17T13:33:36;20.40;82.30
26707;DHT22;14319;49.422;10.934;2022-10-17T13:35:38;20.30;82.00
26707;DHT22;14319;49.422;10.934;2022-10-17T13:37:40;20.30;82.40
26707;DHT22;14319;49.422;10.934;2022-10-17T13:39:45;20.30;81.90
26707;DHT22;14319;49.422;10.934;2022-10-17T13:41:46;20.40;81.80
26707;DHT22;14319;49.422;10.934;2022-10-17T13:43:47;20.40;81.70
26707;DHT22;14319;49.422;10.934;2022-10-17T13:45:56;20.40;81.50
26707;DHT22;14319;49.422;10.934;2022-10-17T13:47:59;20.50;79.90
26707;DHT22;14319;49.422;10.934;2022-10-17T13:50:00;20.60;79.30
26707;DHT22;14319;49.422;10.934;2022-10-17T13:52:02;20.70;79.50
26707;DHT22;14319;49.422;10.934;2022-10-17T13:54:16;20.60;79.30
26707;DHT22;14319;49.422;10.934;2022-10-17T13:56:24;20.50;79.40
26707;DHT22;14319;49.422;10.934;2022-10-17T13:58:25;20.50;79.30
26707;DHT22;14319;49.422;10.934;2022-10-17T14:00:26;20.50;80.10
26707;DHT22;14319;49.422;10.934;2022-10-17T14:02:28;20.50;80.00
26707;DHT22;14319;49.422;10.934;2022-10-17T14:04:29;20.50;79.10
26707;DHT22;14319;49.422;10.934;2022-10-17T14:06:30;20.60;79.20
26707;DHT22;14319;49.422;10.934;2022-10-17T14:08:31;20.70;78.00
26707;DHT22;14319;49.422;10.934;2022-10-17T14:10:33;20.60;78.30
26707;DHT22;14319;49.422;10.934;2022-10-17T14:12:34;20.50;79.20
26707;DHT22;14319;49.422;10.934;2022-10-17T14:14:34;20.50;78.70
26707;DHT22;14319;49.422;10.934;2022-10-17T14:16:36;20.50;79.40
26707;DHT22;14319;49.422;10.934;2022-10-17T14:18:38;20.50;78.70
26707;DHT22;14319;49.422;10.934;2022-10-17T14:20:39;20.50;78.50
26707;DHT22;14319;49.422;10.934;2022-10-17T14:22:45;20.60;79.10
26707;DHT22;14319;49.422;10.934;2022-10-17T14:24:46;20.60;78.70